| time (UTC) | temp F | wind direction | speed MPH | gust MPH | rain 1hr in | rain 24hr in | rain mn in | humidity % | barometer mb |
| 20260508002004 | 52 | 0 | 0.0 | 0.0 | 0.01 | 0.09 | 0.01 | 66 | 1016.2 |
| 20260508001503 | 52 | 0 | 0.0 | 0.0 | 0.01 | 0.09 | 0.01 | 67 | 1016.2 |
| 20260508001003 | 52 | 0 | 0.0 | 0.0 | 0.01 | 0.09 | 0.01 | 68 | 1016.1 |
| 20260508000503 | 52 | 0 | 0.0 | 0.0 | 0.01 | 0.09 | 0.01 | 68 | 1016.1 |
| 20260508000003 | 52 | 0 | 0.0 | 0.0 | 0.01 | 0.09 | 0.01 | 68 | 1016.2 |
| 20260507235503 | 52 | 0 | 0.0 | 0.0 | 0.01 | 0.09 | 0.01 | 69 | 1016.2 |
| 20260507235004 | 52 | 0 | 0.0 | 0.0 | 0.01 | 0.09 | 0.01 | 70 | 1016.2 |
| 20260507234503 | 52 | 0 | 0.0 | 0.0 | 0.01 | 0.09 | 0.01 | 71 | 1016.2 |
| 20260507234003 | 52 | 0 | 0.0 | 0.0 | 0.01 | 0.09 | 0.01 | 71 | 1016.1 |
| 20260507233503 | 52 | 0 | 0.0 | 0.0 | 0.01 | 0.09 | 0.01 | 72 | 1016.1 |
| 20260507233219 | 52 | 0 | 0.0 | 0.0 | 0.01 | 0.09 | 0.01 | 72 | 1016.1 |
| 20260507232503 | 52 | 0 | 0.0 | 0.0 | 0.00 | 0.08 | 0.00 | 73 | 1016.2 |
| 20260507232003 | 52 | 0 | 0.0 | 0.0 | 0.00 | 0.08 | 0.00 | 74 | 1016.3 |
| 20260507231503 | 52 | 0 | 0.0 | 0.0 | 0.00 | 0.08 | 0.00 | 74 | 1016.3 |
| 20260507231219 | 52 | 0 | 0.0 | 0.0 | 0.00 | 0.08 | 0.00 | 74 | 1016.3 |
| 20260507230503 | 52 | 0 | 0.0 | 0.0 | 0.00 | 0.08 | 0.00 | 74 | 1016.2 |
| 20260507230003 | 52 | 0 | 0.0 | 0.0 | 0.00 | 0.08 | 0.00 | 74 | 1016.1 |
| 20260507225503 | 52 | 0 | 0.0 | 0.0 | 0.00 | 0.08 | 0.00 | 74 | 1016.2 |
| 20260507225003 | 52 | 322 | 0.0 | 1.0 | 0.00 | 0.08 | 0.00 | 74 | 1016.2 |
| 20260507224504 | 52 | 322 | 0.0 | 2.0 | 0.00 | 0.08 | 0.00 | 74 | 1016.2 |
| 20260507224003 | 52 | 322 | 0.0 | 2.0 | 0.00 | 0.08 | 0.00 | 74 | 1016.2 |
| 20260507223503 | 52 | 0 | 0.0 | 0.0 | 0.00 | 0.08 | 0.00 | 74 | 1016.2 |
| 20260507223003 | 52 | 0 | 0.0 | 0.0 | 0.00 | 0.08 | 0.00 | 74 | 1016.1 |
| 20260507222503 | 52 | 0 | 0.0 | 0.0 | 0.00 | 0.08 | 0.00 | 74 | 1016.1 |
| 20260507222004 | 52 | 339 | 0.0 | 1.0 | 0.00 | 0.08 | 0.00 | 74 | 1016.1 |
| 20260507221503 | 53 | 333 | 0.0 | 4.0 | 0.00 | 0.08 | 0.00 | 74 | 1016.1 |
| 20260507221003 | 53 | 332 | 0.0 | 4.0 | 0.00 | 0.08 | 0.00 | 74 | 1016.1 |
| 20260507220503 | 53 | 318 | 0.0 | 2.0 | 0.00 | 0.08 | 0.00 | 74 | 1016.1 |
| 20260507220004 | 52 | 321 | 0.0 | 2.0 | 0.00 | 0.08 | 0.00 | 73 | 1016.1 |
| 20260507215503 | 52 | 326 | 0.0 | 2.0 | 0.00 | 0.08 | 0.08 | 73 | 1016.1 |
| 20260507215003 | 52 | 0 | 0.0 | 0.0 | 0.00 | 0.08 | 0.08 | 73 | 1016.0 |
| 20260507214503 | 52 | 0 | 0.0 | 0.0 | 0.00 | 0.08 | 0.08 | 72 | 1016.0 |
| 20260507214003 | 52 | 0 | 0.0 | 0.0 | 0.00 | 0.08 | 0.08 | 71 | 1015.9 |
| 20260507213503 | 52 | 0 | 0.0 | 0.0 | 0.00 | 0.08 | 0.08 | 69 | 1015.9 |
| 20260507213004 | 52 | 0 | 0.0 | 0.0 | 0.00 | 0.08 | 0.08 | 69 | 1015.9 |
| 20260507212720 | 52 | 0 | 0.0 | 0.0 | 0.00 | 0.08 | 0.08 | 69 | 1015.9 |
| 20260507212003 | 51 | 0 | 0.0 | 0.0 | 0.00 | 0.08 | 0.08 | 69 | 1015.8 |
| 20260507211503 | 51 | 0 | 0.0 | 0.0 | 0.00 | 0.08 | 0.08 | 68 | 1015.8 |
| 20260507211003 | 51 | 0 | 0.0 | 0.0 | 0.00 | 0.08 | 0.08 | 68 | 1015.7 |
| 20260507210503 | 51 | 0 | 0.0 | 0.0 | 0.00 | 0.08 | 0.08 | 68 | 1015.7 |
| 20260507210003 | 51 | 0 | 0.0 | 0.0 | 0.00 | 0.08 | 0.08 | 68 | 1015.7 |
| 20260507205503 | 51 | 0 | 0.0 | 0.0 | 0.00 | 0.08 | 0.08 | 68 | 1015.6 |
| 20260507205003 | 51 | 0 | 0.0 | 0.0 | 0.00 | 0.08 | 0.08 | 69 | 1015.6 |
| 20260507204503 | 51 | 316 | 0.0 | 1.0 | 0.00 | 0.08 | 0.08 | 69 | 1015.5 |
| 20260507204003 | 51 | 316 | 0.0 | 1.0 | 0.00 | 0.08 | 0.08 | 69 | 1015.5 |
| 20260507203503 | 51 | 0 | 0.0 | 0.0 | 0.00 | 0.08 | 0.08 | 69 | 1015.4 |
| 20260507203003 | 51 | 0 | 0.0 | 0.0 | 0.00 | 0.08 | 0.08 | 69 | 1015.2 |
| 20260507202503 | 51 | 0 | 0.0 | 0.0 | 0.00 | 0.08 | 0.08 | 70 | 1015.1 |
| 20260507202004 | 51 | 0 | 0.0 | 0.0 | 0.00 | 0.08 | 0.08 | 70 | 1015.0 |
| 20260507201503 | 52 | 0 | 0.0 | 0.0 | 0.00 | 0.08 | 0.08 | 70 | 1015.0 |
| 20260507201218 | 52 | 0 | 0.0 | 0.0 | 0.00 | 0.08 | 0.08 | 70 | 1015.0 |
| 20260507200503 | 52 | 0 | 0.0 | 0.0 | 0.00 | 0.08 | 0.08 | 71 | 1014.9 |
| 20260507200003 | 52 | 0 | 0.0 | 0.0 | 0.00 | 0.08 | 0.08 | 72 | 1014.9 |
| 20260507195503 | 52 | 0 | 0.0 | 0.0 | 0.00 | 0.08 | 0.08 | 72 | 1014.8 |
| 20260507195218 | 52 | 0 | 0.0 | 0.0 | 0.00 | 0.08 | 0.08 | 72 | 1014.7 |
| 20260507194503 | 53 | 0 | 0.0 | 0.0 | 0.00 | 0.08 | 0.08 | 71 | 1014.6 |
| 20260507194216 | 53 | 0 | 0.0 | 0.0 | 0.00 | 0.08 | 0.08 | 71 | 1014.5 |
| 20260507193503 | 53 | 0 | 0.0 | 0.0 | 0.01 | 0.08 | 0.08 | 71 | 1014.4 |
| 20260507193003 | 53 | 0 | 0.0 | 0.0 | 0.01 | 0.08 | 0.08 | 72 | 1014.4 |
| 20260507192503 | 53 | 0 | 0.0 | 0.0 | 0.01 | 0.08 | 0.08 | 71 | 1014.3 |
| 20260507192003 | 53 | 0 | 0.0 | 0.0 | 0.01 | 0.08 | 0.08 | 72 | 1014.2 |
| 20260507191503 | 53 | 0 | 0.0 | 0.0 | 0.01 | 0.08 | 0.08 | 73 | 1014.2 |
| 20260507191003 | 53 | 0 | 0.0 | 0.0 | 0.01 | 0.08 | 0.08 | 73 | 1014.1 |
| 20260507190718 | 54 | 0 | 0.0 | 0.0 | 0.01 | 0.08 | 0.08 | 74 | 1014.1 |
| 20260507190004 | 54 | 0 | 0.0 | 0.0 | 0.01 | 0.08 | 0.08 | 74 | 1014.1 |
| 20260507185503 | 54 | 0 | 0.0 | 0.0 | 0.01 | 0.08 | 0.08 | 75 | 1013.9 |
| 20260507185003 | 54 | 0 | 0.0 | 0.0 | 0.01 | 0.08 | 0.08 | 75 | 1013.8 |
| 20260507184503 | 55 | 0 | 0.0 | 0.0 | 0.01 | 0.08 | 0.08 | 75 | 1013.7 |
| 20260507184003 | 55 | 0 | 0.0 | 0.0 | 0.01 | 0.08 | 0.08 | 75 | 1013.7 |
| 20260507183504 | 55 | 0 | 0.0 | 0.0 | 0.00 | 0.07 | 0.07 | 75 | 1013.7 |
| 20260507183003 | 56 | 0 | 0.0 | 0.0 | 0.00 | 0.07 | 0.07 | 75 | 1013.6 |
| 20260507182503 | 56 | 0 | 0.0 | 0.0 | 0.00 | 0.07 | 0.07 | 75 | 1013.5 |
| 20260507182003 | 56 | 0 | 0.0 | 0.0 | 0.00 | 0.07 | 0.07 | 75 | 1013.4 |
| 20260507181503 | 57 | 0 | 0.0 | 0.0 | 0.00 | 0.07 | 0.07 | 75 | 1013.4 |
| 20260507181003 | 57 | 316 | 0.0 | 1.0 | 0.00 | 0.07 | 0.07 | 75 | 1013.4 |
| 20260507180503 | 57 | 316 | 0.0 | 1.0 | 0.00 | 0.07 | 0.07 | 75 | 1013.4 |
| 20260507180003 | 57 | 0 | 0.0 | 0.0 | 0.00 | 0.07 | 0.07 | 75 | 1013.3 |
| 20260507175716 | 58 | 0 | 0.0 | 0.0 | 0.00 | 0.07 | 0.07 | 75 | 1013.4 |
| 20260507175003 | 58 | 0 | 0.0 | 0.0 | 0.00 | 0.07 | 0.07 | 75 | 1013.4 |
| 20260507174503 | 58 | 268 | 0.0 | 2.0 | 0.00 | 0.07 | 0.07 | 75 | 1013.3 |
| 20260507174003 | 58 | 277 | 0.0 | 5.0 | 0.00 | 0.07 | 0.07 | 75 | 1013.2 |
| 20260507173503 | 58 | 281 | 0.0 | 5.0 | 0.00 | 0.07 | 0.07 | 72 | 1013.2 |
| 20260507173004 | 58 | 0 | 0.0 | 0.0 | 0.00 | 0.07 | 0.07 | 67 | 1013.0 |
| 20260507172718 | 58 | 0 | 0.0 | 0.0 | 0.00 | 0.07 | 0.07 | 65 | 1013.0 |
| 20260507172003 | 58 | 0 | 0.0 | 0.0 | 0.00 | 0.07 | 0.07 | 64 | 1013.0 |
| 20260507171503 | 57 | 0 | 0.0 | 0.0 | 0.00 | 0.07 | 0.07 | 66 | 1013.0 |
| 20260507171003 | 57 | 0 | 0.0 | 0.0 | 0.00 | 0.07 | 0.07 | 68 | 1013.0 |
| 20260507170503 | 57 | 90 | 0.0 | 1.0 | 0.00 | 0.07 | 0.07 | 70 | 1012.9 |
| 20260507170003 | 58 | 90 | 0.0 | 1.0 | 0.00 | 0.07 | 0.07 | 70 | 1012.8 |
| 20260507165503 | 58 | 0 | 0.0 | 0.0 | 0.00 | 0.07 | 0.07 | 70 | 1012.8 |
| 20260507165003 | 58 | 0 | 0.0 | 0.0 | 0.00 | 0.07 | 0.07 | 72 | 1012.8 |
| 20260507164503 | 58 | 95 | 0.0 | 2.0 | 0.00 | 0.07 | 0.07 | 73 | 1012.8 |
| 20260507164003 | 59 | 95 | 0.0 | 2.0 | 0.00 | 0.07 | 0.07 | 74 | 1012.7 |
| 20260507163503 | 59 | 0 | 0.0 | 0.0 | 0.00 | 0.07 | 0.07 | 71 | 1012.7 |
| 20260507163003 | 58 | 0 | 0.0 | 0.0 | 0.00 | 0.07 | 0.07 | 68 | 1012.7 |
| 20260507162503 | 58 | 0 | 0.0 | 0.0 | 0.00 | 0.07 | 0.07 | 66 | 1012.7 |
| 20260507162003 | 57 | 0 | 0.0 | 0.0 | 0.01 | 0.07 | 0.07 | 70 | 1012.6 |
| 20260507161503 | 57 | 0 | 0.0 | 0.0 | 0.01 | 0.07 | 0.07 | 70 | 1012.6 |
| 20260507161003 | 57 | 131 | 0.0 | 3.0 | 0.02 | 0.07 | 0.07 | 71 | 1012.6 |
| 20260507160503 | 57 | 131 | 0.0 | 3.0 | 0.02 | 0.07 | 0.07 | 70 | 1012.5 |
| 20260507160003 | 57 | 97 | 0.0 | 3.0 | 0.02 | 0.07 | 0.07 | 71 | 1012.4 |
| 20260507155503 | 57 | 95 | 0.0 | 3.0 | 0.02 | 0.07 | 0.07 | 73 | 1012.3 |
| 20260507155003 | 57 | 96 | 0.0 | 3.0 | 0.02 | 0.07 | 0.07 | 74 | 1012.5 |
| 20260507154503 | 58 | 47 | 0.0 | 3.0 | 0.02 | 0.07 | 0.07 | 72 | 1012.5 |
| 20260507154003 | 58 | 89 | 4.0 | 12.0 | 0.02 | 0.07 | 0.07 | 73 | 1012.5 |
| 20260507153504 | 58 | 92 | 7.0 | 12.0 | 0.02 | 0.07 | 0.07 | 75 | 1012.4 |
| 20260507153003 | 58 | 94 | 4.0 | 12.0 | 0.04 | 0.07 | 0.07 | 77 | 1012.6 |
| 20260507152504 | 58 | 114 | 1.0 | 8.0 | 0.07 | 0.07 | 0.07 | 76 | 1012.6 |
| 20260507152003 | 58 | 114 | 1.0 | 8.0 | 0.06 | 0.06 | 0.06 | 74 | 1012.7 |
| 20260507151503 | 58 | 106 | 1.0 | 9.0 | 0.06 | 0.06 | 0.06 | 73 | 1012.7 |
| 20260507151003 | 58 | 101 | 1.0 | 9.0 | 0.06 | 0.06 | 0.06 | 73 | 1012.6 |
| 20260507150717 | 58 | 98 | 1.0 | 7.0 | 0.05 | 0.05 | 0.05 | 74 | 1012.6 |
| 20260507150004 | 60 | 0 | 0.0 | 0.0 | 0.05 | 0.05 | 0.05 | 74 | 1012.4 |
| 20260507145503 | 60 | 0 | 0.0 | 0.0 | 0.05 | 0.05 | 0.05 | 75 | 1012.2 |
| 20260507145003 | 60 | 86 | 1.0 | 11.0 | 0.05 | 0.05 | 0.05 | 75 | 1012.1 |
| 20260507144503 | 60 | 89 | 2.0 | 11.0 | 0.05 | 0.05 | 0.05 | 76 | 1012.0 |
| 20260507144003 | 61 | 92 | 1.0 | 10.0 | 0.05 | 0.05 | 0.05 | 75 | 1012.0 |
| 20260507143503 | 63 | 251 | 0.0 | 4.0 | 0.05 | 0.05 | 0.05 | 70 | 1012.0 |
| 20260507143003 | 65 | 269 | 0.0 | 4.0 | 0.03 | 0.03 | 0.03 | 62 | 1012.1 |
| 20260507142503 | 66 | 304 | 0.0 | 4.0 | 0.00 | 0.00 | 0.00 | 55 | 1012.0 |
| 20260507142003 | 66 | 346 | 0.0 | 5.0 | 0.00 | 0.00 | 0.00 | 54 | 1012.0 |
| 20260507141719 | 66 | 342 | 0.0 | 5.0 | 0.00 | 0.00 | 0.00 | 52 | 1012.0 |
| 20260507141003 | 66 | 320 | 0.0 | 4.0 | 0.00 | 0.00 | 0.00 | 51 | 1012.0 |
| 20260507140503 | 66 | 297 | 1.0 | 6.0 | 0.00 | 0.00 | 0.00 | 51 | 1012.0 |
| 20260507140003 | 66 | 291 | 2.0 | 10.0 | 0.00 | 0.00 | 0.00 | 51 | 1012.0 |
| 20260507135503 | 67 | 290 | 2.0 | 10.0 | 0.00 | 0.00 | 0.00 | 50 | 1011.9 |
| 20260507135003 | 67 | 293 | 1.0 | 9.0 | 0.00 | 0.00 | 0.00 | 50 | 1012.0 |
| 20260507134503 | 67 | 309 | 0.0 | 6.0 | 0.00 | 0.00 | 0.00 | 51 | 1012.1 |
| 20260507134003 | 67 | 296 | 1.0 | 11.0 | 0.00 | 0.00 | 0.00 | 50 | 1012.0 |
| 20260507133718 | 67 | 286 | 4.0 | 14.0 | 0.00 | 0.00 | 0.00 | 49 | 1012.0 |
| 20260507133003 | 67 | 284 | 5.0 | 15.0 | 0.00 | 0.00 | 0.00 | 49 | 1012.0 |
| 20260507132503 | 68 | 289 | 3.0 | 15.0 | 0.00 | 0.00 | 0.00 | 50 | 1012.0 |
| 20260507132217 | 68 | 293 | 2.0 | 10.0 | 0.00 | 0.00 | 0.00 | 48 | 1012.0 |
| 20260507131503 | 68 | 289 | 0.0 | 4.0 | 0.00 | 0.00 | 0.00 | 49 | 1012.1 |
| 20260507131003 | 67 | 237 | 0.0 | 1.0 | 0.00 | 0.00 | 0.00 | 50 | 1012.1 |
| 20260507130503 | 67 | 214 | 0.0 | 1.0 | 0.00 | 0.00 | 0.00 | 49 | 1012.1 |
| 20260507130003 | 66 | 277 | 2.0 | 9.0 | 0.00 | 0.00 | 0.00 | 51 | 1012.2 |
| 20260507125503 | 66 | 276 | 2.0 | 9.0 | 0.00 | 0.00 | 0.00 | 51 | 1012.2 |
| 20260507125003 | 66 | 280 | 1.0 | 9.0 | 0.00 | 0.00 | 0.00 | 51 | 1012.2 |
| 20260507124503 | 67 | 285 | 0.0 | 7.0 | 0.00 | 0.00 | 0.00 | 50 | 1012.2 |
| 20260507124003 | 66 | 266 | 0.0 | 7.0 | 0.00 | 0.00 | 0.00 | 51 | 1012.2 |
| 20260507123503 | 66 | 266 | 0.0 | 10.0 | 0.00 | 0.00 | 0.00 | 51 | 1012.2 |
| 20260507123003 | 66 | 248 | 0.0 | 10.0 | 0.00 | 0.00 | 0.00 | 50 | 1012.2 |
| 20260507122716 | 66 | 242 | 0.0 | 10.0 | 0.00 | 0.00 | 0.00 | 50 | 1012.2 |
| 20260507122217 | 67 | 229 | 0.0 | 8.0 | 0.00 | 0.00 | 0.00 | 48 | 1012.1 |
| 20260507121503 | 67 | 232 | 0.0 | 8.0 | 0.00 | 0.00 | 0.00 | 51 | 1012.1 |
| 20260507121003 | 66 | 204 | 0.0 | 7.0 | 0.00 | 0.00 | 0.00 | 51 | 1012.1 |
| 20260507120503 | 66 | 248 | 0.0 | 2.0 | 0.00 | 0.00 | 0.00 | 50 | 1012.1 |
| 20260507120004 | 66 | 273 | 1.0 | 8.0 | 0.00 | 0.00 | 0.00 | 51 | 1012.2 |
| 20260507115503 | 66 | 276 | 1.0 | 8.0 | 0.00 | 0.00 | 0.00 | 51 | 1012.1 |
| 20260507115219 | 66 | 276 | 1.0 | 7.0 | 0.00 | 0.00 | 0.00 | 51 | 1012.2 |
| 20260507114503 | 67 | 267 | 0.0 | 6.0 | 0.00 | 0.00 | 0.00 | 50 | 1012.1 |
| 20260507114003 | 68 | 268 | 1.0 | 9.0 | 0.00 | 0.00 | 0.00 | 50 | 1012.2 |
| 20260507113503 | 68 | 259 | 2.0 | 9.0 | 0.00 | 0.00 | 0.00 | 50 | 1012.2 |
| 20260507113003 | 68 | 201 | 1.0 | 6.0 | 0.00 | 0.00 | 0.00 | 49 | 1012.2 |
| 20260507112503 | 68 | 208 | 2.0 | 7.0 | 0.00 | 0.00 | 0.00 | 49 | 1012.2 |
| 20260507112216 | 68 | 208 | 2.0 | 9.0 | 0.00 | 0.00 | 0.00 | 50 | 1012.2 |
| 20260507111504 | 68 | 152 | 4.0 | 13.0 | 0.00 | 0.00 | 0.00 | 51 | 1012.2 |
| 20260507111003 | 68 | 125 | 3.0 | 13.0 | 0.00 | 0.00 | 0.00 | 52 | 1012.2 |
| 20260507110503 | 68 | 109 | 1.0 | 11.0 | 0.00 | 0.00 | 0.00 | 52 | 1012.2 |
| 20260507110216 | 67 | 193 | 0.0 | 10.0 | 0.00 | 0.00 | 0.00 | 53 | 1012.2 |
| 20260507105503 | 67 | 197 | 1.0 | 10.0 | 0.00 | 0.00 | 0.00 | 53 | 1012.2 |
| 20260507105003 | 68 | 193 | 0.0 | 7.0 | 0.00 | 0.00 | 0.00 | 52 | 1012.3 |
| 20260507104503 | 68 | 118 | 0.0 | 1.0 | 0.00 | 0.00 | 0.00 | 54 | 1012.2 |
| 20260507104003 | 66 | 127 | 0.0 | 1.0 | 0.00 | 0.00 | 0.00 | 58 | 1012.3 |
| 20260507103503 | 65 | 5 | 0.0 | 3.0 | 0.00 | 0.00 | 0.00 | 58 | 1012.3 |
| 20260507103003 | 65 | 5 | 0.0 | 3.0 | 0.00 | 0.00 | 0.00 | 61 | 1012.4 |
| 20260507102503 | 65 | 4 | 0.0 | 2.0 | 0.00 | 0.00 | 0.00 | 60 | 1012.4 |
| 20260507102003 | 64 | 342 | 0.0 | 4.0 | 0.00 | 0.00 | 0.00 | 61 | 1012.4 |
| 20260507101503 | 64 | 335 | 0.0 | 4.0 | 0.00 | 0.00 | 0.00 | 62 | 1012.4 |
| 20260507101003 | 64 | 0 | 0.0 | 0.0 | 0.00 | 0.00 | 0.00 | 62 | 1012.4 |
| 20260507100719 | 64 | 0 | 0.0 | 0.0 | 0.00 | 0.00 | 0.00 | 62 | 1012.4 |
| 20260507100004 | 64 | 0 | 0.0 | 0.0 | 0.00 | 0.00 | 0.00 | 62 | 1012.5 |
| 20260507095503 | 64 | 174 | 0.0 | 2.0 | 0.00 | 0.00 | 0.00 | 63 | 1012.4 |
| 20260507095003 | 63 | 194 | 0.0 | 2.0 | 0.00 | 0.00 | 0.00 | 63 | 1012.4 |
| 20260507094719 | 63 | 203 | 0.0 | 2.0 | 0.00 | 0.00 | 0.00 | 63 | 1012.4 |
| 20260507094003 | 63 | 285 | 0.0 | 1.0 | 0.00 | 0.00 | 0.00 | 64 | 1012.3 |
| 20260507093503 | 63 | 293 | 0.0 | 1.0 | 0.00 | 0.00 | 0.00 | 65 | 1012.3 |
| 20260507093003 | 62 | 0 | 0.0 | 0.0 | 0.00 | 0.00 | 0.00 | 65 | 1012.2 |
| 20260507092503 | 62 | 324 | 0.0 | 1.0 | 0.00 | 0.00 | 0.00 | 65 | 1012.2 |
| 20260507092003 | 62 | 327 | 0.0 | 4.0 | 0.00 | 0.00 | 0.00 | 65 | 1012.2 |
| 20260507091503 | 63 | 267 | 1.0 | 10.0 | 0.00 | 0.00 | 0.00 | 64 | 1012.1 |
| 20260507091003 | 63 | 254 | 1.0 | 11.0 | 0.00 | 0.00 | 0.00 | 65 | 1012.0 |
| 20260507090503 | 64 | 244 | 0.0 | 11.0 | 0.00 | 0.00 | 0.00 | 63 | 1011.9 |
| 20260507090004 | 64 | 54 | 0.0 | 3.0 | 0.00 | 0.00 | 0.00 | 62 | 1012.0 |
| 20260507085503 | 63 | 57 | 0.0 | 3.0 | 0.00 | 0.00 | 0.00 | 65 | 1011.9 |
| 20260507085003 | 62 | 312 | 0.0 | 1.0 | 0.00 | 0.00 | 0.00 | 66 | 1011.9 |
| 20260507084719 | 62 | 302 | 0.0 | 1.0 | 0.00 | 0.00 | 0.00 | 66 | 1011.9 |
| 20260507084216 | 62 | 0 | 0.0 | 0.0 | 0.00 | 0.00 | 0.00 | 66 | 1011.8 |
| 20260507083503 | 62 | 0 | 0.0 | 0.0 | 0.00 | 0.00 | 0.00 | 67 | 1011.9 |
| 20260507083003 | 61 | 314 | 0.0 | 4.0 | 0.00 | 0.00 | 0.00 | 68 | 1011.8 |
| 20260507082718 | 61 | 313 | 0.0 | 4.0 | 0.00 | 0.00 | 0.00 | 67 | 1011.8 |
| 20260507082003 | 61 | 326 | 0.0 | 5.0 | 0.00 | 0.00 | 0.00 | 68 | 1011.8 |
| 20260507081503 | 61 | 338 | 0.0 | 5.0 | 0.00 | 0.00 | 0.00 | 68 | 1011.7 |
| 20260507081003 | 61 | 283 | 0.0 | 3.0 | 0.00 | 0.00 | 0.00 | 68 | 1011.8 |
| 20260507080503 | 61 | 285 | 0.0 | 3.0 | 0.00 | 0.00 | 0.00 | 69 | 1011.7 |
| 20260507080003 | 60 | 305 | 0.0 | 8.0 | 0.00 | 0.00 | 0.00 | 69 | 1011.8 |
| 20260507075503 | 61 | 302 | 0.0 | 8.0 | 0.00 | 0.00 | 0.00 | 68 | 1011.7 |
| 20260507075003 | 61 | 292 | 0.0 | 8.0 | 0.00 | 0.00 | 0.00 | 68 | 1011.7 |
| 20260507074503 | 61 | 309 | 2.0 | 9.0 | 0.00 | 0.00 | 0.00 | 68 | 1011.7 |
| 20260507074003 | 61 | 324 | 2.0 | 11.0 | 0.00 | 0.00 | 0.00 | 69 | 1011.6 |
| 20260507073503 | 61 | 333 | 1.0 | 11.0 | 0.00 | 0.00 | 0.00 | 68 | 1011.6 |
| 20260507073217 | 61 | 360 | 0.0 | 6.0 | 0.00 | 0.00 | 0.00 | 70 | 1011.6 |
| 20260507072503 | 60 | 0 | 0.0 | 0.0 | 0.00 | 0.00 | 0.00 | 70 | 1011.6 |
| 20260507072003 | 60 | 293 | 0.0 | 5.0 | 0.00 | 0.00 | 0.00 | 71 | 1011.6 |
| 20260507071504 | 59 | 314 | 0.0 | 5.0 | 0.00 | 0.00 | 0.00 | 72 | 1011.6 |
| 20260507071003 | 59 | 298 | 1.0 | 7.0 | 0.00 | 0.00 | 0.00 | 72 | 1011.6 |
| 20260507070503 | 59 | 288 | 1.0 | 7.0 | 0.00 | 0.00 | 0.00 | 73 | 1011.5 |
| 20260507070006 | 59 | 271 | 0.0 | 6.0 | 0.00 | 0.00 | 0.00 | 74 | 1011.5 |
| 20260507065503 | 59 | 0 | 0.0 | 0.0 | 0.00 | 0.00 | 0.00 | 74 | 1011.5 |
| 20260507065003 | 59 | 0 | 0.0 | 0.0 | 0.00 | 0.00 | 0.00 | 74 | 1011.4 |
| 20260507064503 | 59 | 274 | 0.0 | 2.0 | 0.00 | 0.00 | 0.00 | 74 | 1011.4 |
| 20260507064003 | 59 | 292 | 0.0 | 3.0 | 0.00 | 0.00 | 0.00 | 75 | 1011.4 |
| 20260507063503 | 58 | 298 | 0.0 | 4.0 | 0.00 | 0.00 | 0.00 | 75 | 1011.3 |
| 20260507063003 | 58 | 284 | 0.0 | 4.0 | 0.00 | 0.00 | 0.00 | 75 | 1011.3 |
| 20260507062718 | 58 | 248 | 1.0 | 7.0 | 0.00 | 0.00 | 0.00 | 76 | 1011.3 |
| 20260507062219 | 58 | 256 | 1.0 | 7.0 | 0.00 | 0.00 | 0.00 | 76 | 1011.2 |
| 20260507061503 | 58 | 317 | 0.0 | 3.0 | 0.00 | 0.00 | 0.00 | 77 | 1011.0 |
| 20260507061003 | 58 | 0 | 0.0 | 0.0 | 0.00 | 0.00 | 0.00 | 77 | 1011.0 |
| 20260507060503 | 57 | 0 | 0.0 | 0.0 | 0.00 | 0.00 | 0.00 | 77 | 1011.0 |
| 20260507060003 | 57 | 0 | 0.0 | 0.0 | 0.00 | 0.00 | 0.00 | 77 | 1011.0 |
| 20260507055503 | 57 | 0 | 0.0 | 0.0 | 0.00 | 0.00 | 0.00 | 77 | 1011.0 |
| 20260507055003 | 57 | 0 | 0.0 | 0.0 | 0.00 | 0.00 | 0.00 | 77 | 1010.9 |
| 20260507054718 | 57 | 0 | 0.0 | 0.0 | 0.00 | 0.00 | 0.00 | 77 | 1010.9 |
| 20260507054003 | 57 | 0 | 0.0 | 0.0 | 0.00 | 0.00 | 0.00 | 76 | 1010.9 |
| 20260507053719 | 57 | 0 | 0.0 | 0.0 | 0.00 | 0.00 | 0.00 | 76 | 1010.9 |
| 20260507053004 | 57 | 0 | 0.0 | 0.0 | 0.00 | 0.00 | 0.00 | 76 | 1010.7 |
| 20260507052503 | 57 | 0 | 0.0 | 0.0 | 0.00 | 0.00 | 0.00 | 76 | 1010.7 |
| 20260507052003 | 56 | 0 | 0.0 | 0.0 | 0.00 | 0.00 | 0.00 | 76 | 1010.7 |
| 20260507051503 | 56 | 0 | 0.0 | 0.0 | 0.00 | 0.00 | 0.00 | 76 | 1010.6 |
| 20260507051003 | 56 | 0 | 0.0 | 0.0 | 0.00 | 0.00 | 0.00 | 76 | 1010.4 |
| 20260507050503 | 56 | 0 | 0.0 | 0.0 | 0.00 | 0.00 | 0.00 | 75 | 1010.4 |
| 20260507050003 | 56 | 0 | 0.0 | 0.0 | 0.00 | 0.00 | 0.00 | 74 | 1010.3 |
| 20260507045503 | 56 | 0 | 0.0 | 0.0 | 0.00 | 0.00 | 0.00 | 74 | 1010.2 |
| 20260507045003 | 56 | 0 | 0.0 | 0.0 | 0.00 | 0.00 | 0.00 | 73 | 1010.1 |
| 20260507044503 | 55 | 0 | 0.0 | 0.0 | 0.00 | 0.00 | 0.00 | 73 | 1010.0 |
| 20260507044218 | 55 | 0 | 0.0 | 0.0 | 0.00 | 0.00 | 0.00 | 72 | 1010.0 |
| 20260507043720 | 55 | 0 | 0.0 | 0.0 | 0.00 | 0.00 | 0.00 | 72 | 1010.0 |
| 20260507043003 | 55 | 0 | 0.0 | 0.0 | 0.00 | 0.00 | 0.00 | 71 | 1009.8 |
| 20260507042503 | 55 | 0 | 0.0 | 0.0 | 0.00 | 0.00 | 0.00 | 70 | 1009.8 |
| 20260507042003 | 54 | 0 | 0.0 | 0.0 | 0.00 | 0.00 | 0.00 | 69 | 1009.8 |
| 20260507041503 | 54 | 0 | 0.0 | 0.0 | 0.00 | 0.00 | 0.00 | 69 | 1009.7 |
| 20260507041004 | 54 | 0 | 0.0 | 0.0 | 0.00 | 0.00 | 0.00 | 69 | 1009.7 |
| 20260507040503 | 54 | 0 | 0.0 | 0.0 | 0.00 | 0.00 | 0.00 | 69 | 1009.7 |
| 20260507040003 | 54 | 0 | 0.0 | 0.0 | 0.00 | 0.00 | 0.00 | 70 | 1009.6 |
| 20260507035503 | 54 | 0 | 0.0 | 0.0 | 0.00 | 0.00 | 0.00 | 69 | 1009.4 |
| 20260507035003 | 54 | 127 | 0.0 | 3.0 | 0.00 | 0.00 | 0.00 | 70 | 1009.2 |
| 20260507034503 | 54 | 111 | 1.0 | 4.0 | 0.00 | 0.00 | 0.00 | 70 | 1009.0 |
| 20260507034218 | 54 | 101 | 1.0 | 4.0 | 0.00 | 0.00 | 0.00 | 70 | 1009.0 |
| 20260507033719 | 54 | 91 | 2.0 | 4.0 | 0.00 | 0.00 | 0.00 | 70 | 1008.9 |
| 20260507033003 | 54 | 90 | 1.0 | 4.0 | 0.00 | 0.00 | 0.00 | 70 | 1008.8 |
| 20260507032503 | 54 | 113 | 0.0 | 1.0 | 0.00 | 0.00 | 0.00 | 72 | 1008.7 |
| 20260507032003 | 54 | 113 | 0.0 | 1.0 | 0.00 | 0.00 | 0.00 | 71 | 1008.7 |
| 20260507031719 | 54 | 113 | 0.0 | 1.0 | 0.00 | 0.00 | 0.00 | 71 | 1008.6 |
| 20260507031003 | 54 | 0 | 0.0 | 0.0 | 0.00 | 0.00 | 0.00 | 71 | 1008.7 |
| 20260507030503 | 54 | 130 | 0.0 | 2.0 | 0.00 | 0.00 | 0.00 | 71 | 1008.7 |
| 20260507030003 | 54 | 109 | 0.0 | 2.0 | 0.00 | 0.00 | 0.00 | 72 | 1008.8 |
| 20260507025503 | 54 | 95 | 0.0 | 2.0 | 0.00 | 0.00 | 0.00 | 72 | 1008.7 |
| 20260507025004 | 54 | 91 | 0.0 | 1.0 | 0.00 | 0.00 | 0.00 | 72 | 1008.6 |
| 20260507024503 | 55 | 0 | 0.0 | 0.0 | 0.00 | 0.00 | 0.00 | 72 | 1008.6 |
| 20260507024003 | 55 | 0 | 0.0 | 0.0 | 0.00 | 0.00 | 0.00 | 73 | 1008.5 |
| 20260507023503 | 55 | 0 | 0.0 | 0.0 | 0.00 | 0.00 | 0.00 | 73 | 1008.5 |
| 20260507023003 | 55 | 293 | 0.0 | 3.0 | 0.00 | 0.00 | 0.00 | 73 | 1008.4 |
| 20260507022716 | 55 | 293 | 0.0 | 3.0 | 0.00 | 0.00 | 0.00 | 73 | 1008.4 |
| 20260507022003 | 56 | 0 | 0.0 | 0.0 | 0.00 | 0.00 | 0.00 | 73 | 1008.4 |
| 20260507021503 | 56 | 0 | 0.0 | 0.0 | 0.00 | 0.00 | 0.00 | 73 | 1008.5 |
| 20260507021003 | 56 | 294 | 0.0 | 1.0 | 0.00 | 0.00 | 0.00 | 73 | 1008.3 |
| 20260507020503 | 56 | 295 | 0.0 | 3.0 | 0.00 | 0.00 | 0.00 | 73 | 1008.3 |
| 20260507020217 | 56 | 295 | 0.0 | 3.0 | 0.00 | 0.00 | 0.00 | 73 | 1008.2 |
| 20260507015718 | 56 | 0 | 0.0 | 0.0 | 0.00 | 0.00 | 0.00 | 74 | 1008.1 |
| 20260507015219 | 55 | 0 | 0.0 | 0.0 | 0.00 | 0.00 | 0.00 | 74 | 1008.1 |
| 20260507014503 | 56 | 0 | 0.0 | 0.0 | 0.00 | 0.00 | 0.00 | 75 | 1008.1 |
| 20260507014003 | 56 | 0 | 0.0 | 0.0 | 0.00 | 0.00 | 0.00 | 75 | 1007.9 |
| 20260507013503 | 56 | 181 | 0.0 | 1.0 | 0.00 | 0.00 | 0.00 | 75 | 1007.9 |
| 20260507013003 | 56 | 181 | 0.0 | 1.0 | 0.00 | 0.00 | 0.00 | 75 | 1007.8 |
| 20260507012503 | 56 | 219 | 0.0 | 2.0 | 0.00 | 0.00 | 0.00 | 75 | 1007.7 |
| 20260507012217 | 56 | 219 | 0.0 | 2.0 | 0.00 | 0.00 | 0.00 | 75 | 1007.8 |
| 20260507011503 | 56 | 0 | 0.0 | 0.0 | 0.00 | 0.00 | 0.00 | 75 | 1007.9 |
| 20260507011003 | 56 | 0 | 0.0 | 0.0 | 0.00 | 0.00 | 0.00 | 76 | 1007.8 |
| 20260507010503 | 56 | 0 | 0.0 | 0.0 | 0.00 | 0.00 | 0.00 | 76 | 1007.6 |
| 20260507010217 | 56 | 0 | 0.0 | 0.0 | 0.00 | 0.00 | 0.00 | 76 | 1007.6 |
| 20260507005503 | 56 | 0 | 0.0 | 0.0 | 0.00 | 0.00 | 0.00 | 76 | 1007.4 |
| 20260507005003 | 56 | 0 | 0.0 | 0.0 | 0.00 | 0.00 | 0.00 | 76 | 1007.4 |
| 20260507004503 | 56 | 0 | 0.0 | 0.0 | 0.00 | 0.00 | 0.00 | 76 | 1007.4 |
| 20260507004003 | 56 | 0 | 0.0 | 0.0 | 0.00 | 0.00 | 0.00 | 77 | 1007.3 |
| 20260507003503 | 56 | 0 | 0.0 | 0.0 | 0.00 | 0.00 | 0.00 | 77 | 1007.3 |
| 20260507003003 | 56 | 158 | 0.0 | 4.0 | 0.00 | 0.00 | 0.00 | 77 | 1007.1 |
| 20260507002503 | 57 | 158 | 0.0 | 4.0 | 0.00 | 0.00 | 0.00 | 77 | 1007.1 |